createdAt,value
2022-10-29T00:02:46.787Z,101197.75
2022-10-29T00:05:58.592Z,101211.38
2022-10-29T00:09:01.597Z,101225.75
2022-10-29T00:12:06.614Z,101225.53
2022-10-29T00:15:11.325Z,101242.78
2022-10-29T00:18:14.277Z,101241.69
2022-10-29T00:21:20.987Z,101250.34
2022-10-29T00:24:24.551Z,101250.00
2022-10-29T00:27:28.881Z,101254.81
2022-10-29T00:30:31.846Z,101249.25
2022-10-29T00:33:35.419Z,101248.50
2022-10-29T00:36:38.381Z,101242.31
2022-10-29T00:39:41.629Z,101245.16
2022-10-29T00:42:45.896Z,101252.47
2022-10-29T00:45:54.180Z,101258.84
2022-10-29T00:49:00.988Z,101260.75
2022-10-29T00:52:06.041Z,101255.66
2022-10-29T00:55:11.105Z,101248.06
2022-10-29T00:58:15.479Z,101240.44
2022-10-29T01:01:18.694Z,101233.41
2022-10-29T01:04:21.983Z,101219.69
2022-10-29T01:07:25.932Z,101214.09
2022-10-29T01:10:38.903Z,101210.88
2022-10-29T01:14:02.787Z,101200.91
2022-10-29T01:17:17.768Z,101197.16
2022-10-29T01:21:05.464Z,101194.84
2022-10-29T01:24:53.573Z,101185.91
2022-10-29T01:28:09.807Z,101182.47
2022-10-29T01:31:25.462Z,101167.72
2022-10-29T01:34:39.723Z,101172.25
2022-10-29T01:37:58.318Z,101165.91
2022-10-29T01:41:09.008Z,101166.53
2022-10-29T01:44:24.718Z,101160.94
2022-10-29T01:47:33.838Z,101158.88
2022-10-29T01:50:39.930Z,101160.31
2022-10-29T01:53:42.986Z,101161.00
2022-10-29T01:56:54.619Z,101164.69
2022-10-29T02:00:01.703Z,101169.53
2022-10-29T02:03:28.397Z,101161.44
2022-10-29T02:06:42.978Z,101169.88
2022-10-29T02:09:56.009Z,101156.03
2022-10-29T02:12:59.598Z,101157.13
2022-10-29T02:16:06.712Z,101143.91
2022-10-29T02:19:11.056Z,101143.09
2022-10-29T02:22:16.424Z,101149.50
2022-10-29T02:25:20.003Z,101146.16
2022-10-29T02:28:23.021Z,101150.22
2022-10-29T02:31:26.582Z,101155.69
2022-10-29T02:34:30.870Z,101158.75
2022-10-29T02:37:33.873Z,101160.53
2022-10-29T02:40:36.856Z,101160.41
2022-10-29T02:43:40.077Z,101165.69
2022-10-29T02:46:43.018Z,101152.06
2022-10-29T02:49:47.380Z,101149.31
2022-10-29T02:52:50.351Z,101153.38
2022-10-29T02:55:53.314Z,101154.53
2022-10-29T02:58:56.351Z,101161.66
2022-10-29T03:01:59.542Z,101162.84
2022-10-29T03:05:06.581Z,101155.84
2022-10-29T03:08:09.626Z,101153.06
2022-10-29T03:11:13.147Z,101157.34
2022-10-29T03:14:16.251Z,101153.06
2022-10-29T03:17:19.215Z,101150.06
2022-10-29T03:20:23.527Z,101159.91
2022-10-29T03:23:26.602Z,101154.94
2022-10-29T03:26:29.667Z,101148.22
2022-10-29T03:29:32.699Z,101149.13
2022-10-29T03:32:35.653Z,101143.91
2022-10-29T03:35:40.185Z,101148.28
2022-10-29T03:38:43.406Z,101156.34
2022-10-29T03:41:46.464Z,101155.03
2022-10-29T03:44:49.456Z,101150.63
2022-10-29T03:47:53.297Z,101150.63
2022-10-29T03:51:00.359Z,101151.94
2022-10-29T03:54:03.547Z,101150.28
2022-10-29T03:57:06.513Z,101153.84
2022-10-29T04:00:11.935Z,101153.13
2022-10-29T04:03:18.682Z,101150.00
2022-10-29T04:06:23.249Z,101153.34
2022-10-29T04:09:26.261Z,101164.03
2022-10-29T04:12:29.263Z,101162.97
2022-10-29T04:15:32.511Z,101173.44
2022-10-29T04:18:35.846Z,101162.34
2022-10-29T04:28:43.726Z,101172.31
2022-10-29T04:31:47.219Z,101171.69
2022-10-29T04:34:50.218Z,101161.13
2022-10-29T04:37:55.471Z,101161.47
2022-10-29T04:41:00.302Z,101158.03
2022-10-29T04:44:05.402Z,101151.22
2022-10-29T04:47:09.842Z,101153.84
2022-10-29T04:50:15.966Z,101150.38
2022-10-29T04:53:21.336Z,101143.50
2022-10-29T04:56:25.098Z,101144.34
2022-10-29T04:59:28.165Z,101138.16
2022-10-29T05:02:31.184Z,101144.22
2022-10-29T05:05:34.774Z,101159.69
2022-10-29T05:08:39.112Z,101162.69
2022-10-29T05:11:42.060Z,101167.19
2022-10-29T05:14:45.297Z,101175.25
2022-10-29T05:17:48.455Z,101166.56
2022-10-29T05:20:55.124Z,101165.13
2022-10-29T05:23:59.646Z,101165.88
2022-10-29T05:27:03.383Z,101178.94
2022-10-29T05:30:08.319Z,101165.13
2022-10-29T05:33:13.061Z,101174.22
2022-10-29T05:36:16.026Z,101174.16
2022-10-29T05:39:20.385Z,101171.63
2022-10-29T05:42:23.679Z,101179.38
2022-10-29T05:45:26.935Z,101170.19
2022-10-29T05:48:29.891Z,101155.72
2022-10-29T05:51:33.090Z,101147.56
2022-10-29T05:54:37.357Z,101138.22
2022-10-29T05:57:40.334Z,101136.53
2022-10-29T06:00:45.747Z,101137.25
2022-10-29T06:03:48.867Z,101146.38
2022-10-29T06:06:51.907Z,101153.19
2022-10-29T06:09:56.285Z,101167.47
2022-10-29T06:12:59.272Z,101163.69
2022-10-29T06:16:02.375Z,101163.06
2022-10-29T06:19:05.566Z,101160.31
2022-10-29T06:22:08.863Z,101156.63
2022-10-29T06:25:13.258Z,101159.47
2022-10-29T06:28:16.396Z,101155.28
2022-10-29T06:31:19.414Z,101156.88
2022-10-29T06:34:22.366Z,101173.03
2022-10-29T06:37:25.282Z,101169.69
2022-10-29T06:40:29.628Z,101167.09
2022-10-29T06:43:32.571Z,101173.78
2022-10-29T06:46:35.780Z,101170.00
2022-10-29T06:49:38.708Z,101161.84
2022-10-29T06:52:41.646Z,101177.31
2022-10-29T06:55:46.111Z,101173.88
2022-10-29T06:58:49.118Z,101166.44
2022-10-29T07:01:52.486Z,101167.66
2022-10-29T07:04:55.482Z,101165.06
2022-10-29T07:07:59.962Z,101160.09
2022-10-29T07:11:04.590Z,101155.53
2022-10-29T07:14:09.694Z,101161.25
2022-10-29T07:17:12.694Z,101157.31
2022-10-29T07:20:15.834Z,101147.22
2022-10-29T07:23:18.867Z,101147.78
2022-10-29T07:26:23.185Z,101159.72
2022-10-29T07:29:26.109Z,101156.41
2022-10-29T07:32:29.057Z,101156.03
2022-10-29T07:35:32.293Z,101162.94
2022-10-29T07:38:35.266Z,101156.63
2022-10-29T07:41:39.552Z,101166.66
2022-10-29T07:44:42.543Z,101170.56
2022-10-29T07:47:45.817Z,101165.66
2022-10-29T07:50:50.006Z,101166.03
2022-10-29T07:53:52.969Z,101168.88
2022-10-29T07:56:57.315Z,101158.50
2022-10-29T08:00:00.821Z,101172.41
2022-10-29T08:03:04.813Z,101170.50
2022-10-29T08:06:08.209Z,101172.09
2022-10-29T08:09:12.002Z,101167.56
2022-10-29T08:12:16.294Z,101176.66
2022-10-29T08:15:20.059Z,101176.25
2022-10-29T08:18:23.057Z,101184.13
2022-10-29T08:21:25.996Z,101191.25
2022-10-29T08:24:28.961Z,101204.22
2022-10-29T08:27:33.266Z,101225.44
2022-10-29T08:30:36.582Z,101240.16
2022-10-29T08:33:39.560Z,101248.81
2022-10-29T08:36:42.710Z,101265.47
2022-10-29T08:39:45.671Z,101284.31
2022-10-29T08:43:08.966Z,101299.31
2022-10-29T08:46:20.390Z,101311.56
2022-10-29T08:49:29.183Z,101346.47
2022-10-29T08:52:38.057Z,101348.22
2022-10-29T08:55:41.049Z,101348.38
2022-10-29T08:58:55.371Z,101356.34
2022-10-29T09:01:58.456Z,101371.47
2022-10-29T09:05:02.604Z,101383.28
2022-10-29T09:08:25.808Z,101389.81
2022-10-29T09:11:49.267Z,101390.81
2022-10-29T09:15:18.841Z,101401.50
2022-10-29T09:18:33.874Z,101399.50
2022-10-29T09:21:46.674Z,101414.63
2022-10-29T09:24:59.483Z,101424.38
2022-10-29T09:28:21.632Z,101439.47
2022-10-29T09:31:35.825Z,101448.84
2022-10-29T09:34:44.905Z,101462.28
2022-10-29T09:37:53.638Z,101464.00
2022-10-29T09:40:59.216Z,101477.22
2022-10-29T09:44:08.924Z,101480.16
2022-10-29T09:47:27.316Z,101485.31
2022-10-29T09:50:39.126Z,101483.53
2022-10-29T09:53:42.108Z,101489.91
2022-10-29T09:56:51.830Z,101471.28
2022-10-29T10:00:02.354Z,101468.50
2022-10-29T10:03:22.763Z,101471.44
2022-10-29T10:06:25.787Z,101466.59
2022-10-29T10:09:28.728Z,101480.47
2022-10-29T10:12:47.768Z,101486.00
2022-10-29T10:15:54.523Z,101487.38
2022-10-29T10:18:58.999Z,101481.72
2022-10-29T10:22:05.144Z,101472.53
2022-10-29T10:25:34.664Z,101462.97
2022-10-29T10:28:37.667Z,101472.41
2022-10-29T10:31:41.325Z,101467.69
2022-10-29T10:34:45.619Z,101472.09
2022-10-29T10:37:48.603Z,101467.00
2022-10-29T10:40:57.318Z,101468.59
2022-10-29T10:44:02.509Z,101482.66
2022-10-29T10:47:08.234Z,101480.28
2022-10-29T10:50:19.753Z,101484.16
2022-10-29T10:53:24.320Z,101480.00
2022-10-29T10:56:27.315Z,101513.56
2022-10-29T10:59:48.955Z,101532.25
2022-10-29T11:02:59.101Z,101527.25
2022-10-29T11:06:08.295Z,101529.59
2022-10-29T11:09:23.189Z,101525.47
2022-10-29T11:12:33.472Z,101531.06
2022-10-29T11:15:40.418Z,101530.66
2022-10-29T11:18:49.959Z,101522.97
2022-10-29T11:22:04.531Z,101511.47
2022-10-29T11:25:16.351Z,101500.53
2022-10-29T11:28:25.881Z,101499.72
2022-10-29T11:31:37.453Z,101518.69
2022-10-29T11:34:52.746Z,101513.44
2022-10-29T11:38:02.253Z,101503.22
2022-10-29T11:41:08.863Z,101493.34
2022-10-29T11:44:15.540Z,101488.81
2022-10-29T11:47:37.307Z,101503.78
2022-10-29T11:50:49.679Z,101497.31
2022-10-29T11:54:10.359Z,101498.63
2022-10-29T11:57:20.262Z,101488.13
2022-10-29T12:00:24.695Z,101484.06
2022-10-29T12:03:56.477Z,101477.84
2022-10-29T12:07:13.370Z,101482.31
2022-10-29T12:10:35.179Z,101497.28
2022-10-29T12:13:54.725Z,101484.53
2022-10-29T12:17:05.814Z,101489.00
2022-10-29T12:20:22.080Z,101490.34
2022-10-29T12:23:38.094Z,101478.31
2022-10-29T12:26:48.307Z,101485.16
2022-10-29T12:29:59.158Z,101474.69
2022-10-29T12:33:11.507Z,101476.44
2022-10-29T12:36:23.832Z,101485.38
2022-10-29T12:39:30.825Z,101478.53
2022-10-29T12:42:35.548Z,101462.63
2022-10-29T12:46:14.388Z,101464.72
2022-10-29T12:49:18.853Z,101463.34
2022-10-29T12:52:32.097Z,101464.25
2022-10-29T12:55:36.975Z,101462.63
2022-10-29T12:58:50.300Z,101431.31
2022-10-29T13:05:35.478Z,101442.00
2022-10-29T13:08:39.775Z,101428.19
2022-10-29T13:11:49.033Z,101430.19
2022-10-29T13:14:57.026Z,101439.81
2022-10-29T13:18:07.016Z,101432.38
2022-10-29T13:21:10.376Z,101437.22
2022-10-29T13:24:17.818Z,101423.00
2022-10-29T13:27:36.888Z,101415.84
2022-10-29T13:30:42.883Z,101431.94
2022-10-29T13:33:52.423Z,101433.59
2022-10-29T13:37:34.279Z,101406.00
2022-10-29T13:41:13.115Z,101385.00
2022-10-29T13:44:21.764Z,101395.47
2022-10-29T13:47:26.890Z,101388.69
2022-10-29T13:50:30.116Z,101372.75
2022-10-29T13:53:40.375Z,101367.91
2022-10-29T13:56:50.511Z,101347.66
2022-10-29T13:59:59.372Z,101318.69
2022-10-29T14:03:13.981Z,101338.34
2022-10-29T14:06:23.717Z,101324.81
2022-10-29T14:09:37.849Z,101338.41
2022-10-29T14:12:42.840Z,101343.00
2022-10-29T14:16:02.134Z,101340.88
2022-10-29T14:19:20.332Z,101329.22
2022-10-29T14:22:36.430Z,101348.88
2022-10-29T14:25:39.516Z,101331.50
2022-10-29T14:28:44.622Z,101313.03
2022-10-29T14:31:47.994Z,101320.69
2022-10-29T14:34:52.853Z,101331.63
2022-10-29T14:37:56.911Z,101303.94
2022-10-29T14:41:00.315Z,101294.56
2022-10-29T14:44:09.550Z,101294.41
2022-10-29T14:47:27.591Z,101273.59
2022-10-29T14:50:33.417Z,101278.94
2022-10-29T14:53:39.545Z,101275.63
2022-10-29T14:56:43.007Z,101267.81
2022-10-29T14:59:50.223Z,101252.75
2022-10-29T15:02:56.168Z,101247.06
2022-10-29T15:06:17.146Z,101236.78
2022-10-29T15:09:28.038Z,101227.38
2022-10-29T15:12:37.441Z,101228.88
2022-10-29T15:15:41.063Z,101232.56
2022-10-29T15:18:49.706Z,101223.69
2022-10-29T15:21:54.483Z,101226.38
2022-10-29T15:24:57.828Z,101210.38
2022-10-29T15:28:02.503Z,101207.41
2022-10-29T15:31:06.306Z,101196.03
2022-10-29T15:34:11.623Z,101191.31
2022-10-29T15:37:25.466Z,101182.91
2022-10-29T15:40:28.490Z,101186.97
2022-10-29T15:43:31.547Z,101179.53
2022-10-29T15:46:49.767Z,101177.75
2022-10-29T15:49:53.051Z,101164.34
2022-10-29T15:53:01.754Z,101163.53
2022-10-29T15:56:05.537Z,101164.41
2022-10-29T15:59:13.352Z,101169.69
2022-10-29T16:02:18.229Z,101186.06
2022-10-29T16:05:21.686Z,101174.41
2022-10-29T16:08:30.043Z,101198.56
2022-10-29T16:11:36.059Z,101190.38
2022-10-29T16:14:39.070Z,101184.03
2022-10-29T16:17:42.253Z,101179.88
2022-10-29T16:20:45.763Z,101180.81
2022-10-29T16:23:50.685Z,101173.19
2022-10-29T16:26:53.665Z,101160.31
2022-10-29T16:29:56.608Z,101157.66
2022-10-29T16:33:01.374Z,101158.66
2022-10-29T16:36:04.690Z,101137.84
2022-10-29T16:39:09.263Z,101145.06
2022-10-29T16:42:29.936Z,101152.56
2022-10-29T16:45:33.325Z,101157.28
2022-10-29T16:48:36.416Z,101151.59
2022-10-29T16:51:39.352Z,101133.72
2022-10-29T16:54:43.672Z,101129.75
2022-10-29T16:57:46.638Z,101131.50
2022-10-29T17:00:49.981Z,101141.22
2022-10-29T17:03:53.460Z,101138.47
2022-10-29T17:06:56.443Z,101132.78
2022-10-29T17:10:00.949Z,101131.97
2022-10-29T17:13:04.328Z,101124.31
2022-10-29T17:16:08.722Z,101127.09
2022-10-29T17:19:11.776Z,101121.84
2022-10-29T17:22:16.093Z,101128.50
2022-10-29T17:25:20.554Z,101134.88
2022-10-29T17:28:24.912Z,101131.69
2022-10-29T17:31:28.058Z,101126.81
2022-10-29T17:34:30.996Z,101130.84
2022-10-29T17:37:34.077Z,101134.03
2022-10-29T17:40:38.614Z,101124.88
2022-10-29T17:43:41.664Z,101126.78
2022-10-29T17:46:44.616Z,101119.41
2022-10-29T17:49:49.123Z,101111.81
2022-10-29T17:52:53.218Z,101109.44
2022-10-29T17:56:00.434Z,101106.28
2022-10-29T17:59:03.516Z,101110.41
2022-10-29T18:02:06.617Z,101107.09
2022-10-29T18:05:10.423Z,101103.34
2022-10-29T18:08:13.429Z,101101.81
2022-10-29T18:11:20.188Z,101108.19
2022-10-29T18:14:23.439Z,101092.69
2022-10-29T18:17:26.468Z,101105.41
2022-10-29T18:20:29.498Z,101105.09
2022-10-29T18:23:32.551Z,101106.19
2022-10-29T18:26:37.984Z,101086.69
2022-10-29T18:29:41.038Z,101088.63
2022-10-29T18:32:44.019Z,101093.72
2022-10-29T18:35:47.036Z,101093.44
2022-10-29T18:38:51.804Z,101087.47
2022-10-29T18:41:56.947Z,101099.22
2022-10-29T18:44:59.925Z,101096.72
2022-10-29T18:48:02.936Z,101094.75
2022-10-29T18:51:08.653Z,101094.47
2022-10-29T18:54:14.493Z,101094.16
2022-10-29T18:57:19.503Z,101094.16
2022-10-29T19:00:23.000Z,101098.44
2022-10-29T19:06:36.541Z,101087.72
2022-10-29T19:09:39.482Z,101075.69
2022-10-29T19:12:43.809Z,101081.88
2022-10-29T19:15:46.789Z,101072.81
2022-10-29T19:18:55.031Z,101070.72
2022-10-29T19:21:58.082Z,101067.41
2022-10-29T19:25:01.038Z,101065.03
2022-10-29T19:28:05.946Z,101051.81
2022-10-29T19:31:12.703Z,101048.22
2022-10-29T19:34:16.073Z,101044.38
2022-10-29T19:37:19.006Z,101058.03
2022-10-29T19:40:22.122Z,101037.31
2022-10-29T19:43:28.541Z,101042.81
2022-10-29T19:46:31.871Z,101051.09
2022-10-29T19:49:35.075Z,101045.53
2022-10-29T19:52:38.085Z,101045.66
2022-10-29T19:55:41.361Z,101046.88
2022-10-29T19:58:45.661Z,101044.63
2022-10-29T20:01:48.923Z,101036.31
2022-10-29T20:04:52.095Z,101054.00
2022-10-29T20:07:56.556Z,101055.66
2022-10-29T20:11:01.150Z,101041.00
2022-10-29T20:14:05.522Z,101051.63
2022-10-29T20:17:08.518Z,101055.47
2022-10-29T20:20:16.824Z,101056.16
2022-10-29T20:23:20.394Z,101044.16
2022-10-29T20:26:23.513Z,101047.00
2022-10-29T20:29:27.758Z,101050.47
2022-10-29T20:32:30.803Z,101054.19
2022-10-29T20:35:33.747Z,101050.00
2022-10-29T20:38:37.598Z,101056.53
2022-10-29T20:41:40.747Z,101047.84
2022-10-29T20:44:45.890Z,101046.06
2022-10-29T20:47:48.920Z,101045.34
2022-10-29T20:50:52.756Z,101051.69
2022-10-29T20:53:56.202Z,101058.59
2022-10-29T20:56:59.329Z,101051.69
2022-10-29T21:00:03.921Z,101050.97
2022-10-29T21:03:07.384Z,101062.44
2022-10-29T21:06:16.910Z,101050.28
2022-10-29T21:09:20.607Z,101044.22
2022-10-29T21:12:23.538Z,101039.06
2022-10-29T21:15:27.856Z,101041.00
2022-10-29T21:18:30.842Z,101039.22
2022-10-29T21:21:34.055Z,101033.13
2022-10-29T21:24:38.328Z,101030.88
2022-10-29T21:27:43.492Z,101035.06
2022-10-29T21:30:48.558Z,101036.84
2022-10-29T21:33:51.933Z,101028.41
2022-10-29T21:36:54.911Z,101027.56
2022-10-29T21:40:03.267Z,101029.38
2022-10-29T21:43:09.154Z,101041.66
2022-10-29T21:46:13.613Z,101038.06
2022-10-29T21:49:16.585Z,101030.81
2022-10-29T21:52:19.564Z,101044.44
2022-10-29T21:55:22.588Z,101036.31
2022-10-29T21:58:25.691Z,101026.91
2022-10-29T22:01:30.194Z,101036.09
2022-10-29T22:04:33.335Z,101036.50
2022-10-29T22:07:36.809Z,101030.41
2022-10-29T22:10:39.763Z,101031.50
2022-10-29T22:13:42.816Z,101025.66
2022-10-29T22:16:47.959Z,101007.44
2022-10-29T22:19:51.387Z,101015.31
2022-10-29T22:22:54.542Z,101013.97
2022-10-29T22:25:57.662Z,101006.94
2022-10-29T22:29:00.731Z,101001.00
2022-10-29T22:32:07.815Z,100997.66
2022-10-29T22:35:10.798Z,100995.19
2022-10-29T22:38:13.899Z,100992.81
2022-10-29T22:41:18.554Z,101003.03
2022-10-29T22:44:21.592Z,101008.28
2022-10-29T22:47:25.980Z,101011.22
2022-10-29T22:50:29.277Z,101012.19
2022-10-29T22:53:32.775Z,101005.88
2022-10-29T22:56:37.852Z,101007.44
2022-10-29T22:59:40.997Z,101003.31
2022-10-29T23:02:45.361Z,101010.44
2022-10-29T23:05:57.907Z,101000.09
2022-10-29T23:09:01.721Z,101010.72
2022-10-29T23:12:05.945Z,100996.78
2022-10-29T23:15:09.420Z,101009.75
2022-10-29T23:18:13.857Z,101009.47
2022-10-29T23:21:17.057Z,101003.31
2022-10-29T23:24:19.989Z,101004.38
2022-10-29T23:27:22.947Z,100995.47
2022-10-29T23:30:26.210Z,101006.31
2022-10-29T23:33:32.548Z,101008.34
2022-10-29T23:36:35.862Z,101000.72
2022-10-29T23:39:38.862Z,101005.25
2022-10-29T23:42:41.893Z,101005.53
2022-10-29T23:45:45.121Z,101001.47
2022-10-29T23:48:49.465Z,100991.50
2022-10-29T23:51:52.650Z,101001.50
2022-10-29T23:54:55.751Z,101003.88
2022-10-29T23:57:58.847Z,101004.84
